sensor_id;sensor_type;location;lat;lon;timestamp;temperature;humidity
13426;DHT22;6785;57.918;12.530;2023-02-28T00:00:29;-1.00;99.90
13426;DHT22;6785;57.918;12.530;2023-02-28T00:02:56;-1.10;99.90
13426;DHT22;6785;57.918;12.530;2023-02-28T00:05:25;-1.10;99.90
13426;DHT22;6785;57.918;12.530;2023-02-28T00:07:52;-1.00;99.90
13426;DHT22;6785;57.918;12.530;2023-02-28T00:10:20;-1.00;99.90
13426;DHT22;6785;57.918;12.530;2023-02-28T00:12:48;-1.00;99.90
13426;DHT22;6785;57.918;12.530;2023-02-28T00:15:16;-1.00;99.90
13426;DHT22;6785;57.918;12.530;2023-02-28T00:17:44;-1.10;99.90
13426;DHT22;6785;57.918;12.530;2023-02-28T00:20:12;-1.10;99.90
13426;DHT22;6785;57.918;12.530;2023-02-28T00:22:40;-1.10;99.90
13426;DHT22;6785;57.918;12.530;2023-02-28T00:25:09;-1.10;99.90
13426;DHT22;6785;57.918;12.530;2023-02-28T00:27:37;-1.20;99.90
13426;DHT22;6785;57.918;12.530;2023-02-28T00:30:07;-1.20;99.90
13426;DHT22;6785;57.918;12.530;2023-02-28T00:32:35;-1.30;99.90
13426;DHT22;6785;57.918;12.530;2023-02-28T00:35:04;-1.30;99.90
13426;DHT22;6785;57.918;12.530;2023-02-28T00:37:31;-1.30;99.90
13426;DHT22;6785;57.918;12.530;2023-02-28T00:39:58;-1.20;99.90
13426;DHT22;6785;57.918;12.530;2023-02-28T00:42:25;-1.30;99.90
13426;DHT22;6785;57.918;12.530;2023-02-28T00:44:51;-1.30;99.90
13426;DHT22;6785;57.918;12.530;2023-02-28T00:47:18;-1.30;99.90
13426;DHT22;6785;57.918;12.530;2023-02-28T00:49:45;-1.30;99.90
13426;DHT22;6785;57.918;12.530;2023-02-28T00:52:13;-1.30;99.90
13426;DHT22;6785;57.918;12.530;2023-02-28T00:54:39;-1.40;99.90
13426;DHT22;6785;57.918;12.530;2023-02-28T00:57:06;-1.40;99.90
13426;DHT22;6785;57.918;12.530;2023-02-28T00:59:33;-1.40;99.90
13426;DHT22;6785;57.918;12.530;2023-02-28T01:01:59;-1.40;99.90
13426;DHT22;6785;57.918;12.530;2023-02-28T01:04:26;-1.40;99.90
13426;DHT22;6785;57.918;12.530;2023-02-28T01:06:53;-1.40;99.90
13426;DHT22;6785;57.918;12.530;2023-02-28T01:09:21;-1.50;99.90
13426;DHT22;6785;57.918;12.530;2023-02-28T01:11:48;-1.50;99.90
13426;DHT22;6785;57.918;12.530;2023-02-28T01:14:16;-1.50;99.90
13426;DHT22;6785;57.918;12.530;2023-02-28T01:16:43;-1.40;99.90
13426;DHT22;6785;57.918;12.530;2023-02-28T01:19:10;-1.40;99.90
13426;DHT22;6785;57.918;12.530;2023-02-28T01:21:37;-1.40;99.90
13426;DHT22;6785;57.918;12.530;2023-02-28T01:24:04;-1.40;99.90
13426;DHT22;6785;57.918;12.530;2023-02-28T01:26:33;-1.50;99.90
13426;DHT22;6785;57.918;12.530;2023-02-28T01:29:00;-1.50;99.90
13426;DHT22;6785;57.918;12.530;2023-02-28T01:31:27;-1.50;99.90
13426;DHT22;6785;57.918;12.530;2023-02-28T01:33:54;-1.50;99.90
13426;DHT22;6785;57.918;12.530;2023-02-28T01:36:22;-1.50;99.90
13426;DHT22;6785;57.918;12.530;2023-02-28T01:38:50;-1.50;99.90
13426;DHT22;6785;57.918;12.530;2023-02-28T01:41:18;-1.50;99.90
13426;DHT22;6785;57.918;12.530;2023-02-28T01:43:59;-1.50;99.90
13426;DHT22;6785;57.918;12.530;2023-02-28T01:46:28;-1.50;99.90
13426;DHT22;6785;57.918;12.530;2023-02-28T01:49:00;-1.60;99.90
13426;DHT22;6785;57.918;12.530;2023-02-28T01:51:33;-1.70;99.90
13426;DHT22;6785;57.918;12.530;2023-02-28T01:54:03;-1.70;99.90
13426;DHT22;6785;57.918;12.530;2023-02-28T01:56:34;-1.70;99.90
13426;DHT22;6785;57.918;12.530;2023-02-28T01:59:04;-1.70;99.90
13426;DHT22;6785;57.918;12.530;2023-02-28T02:01:31;-1.70;99.90
13426;DHT22;6785;57.918;12.530;2023-02-28T02:04:01;-1.60;99.90
13426;DHT22;6785;57.918;12.530;2023-02-28T02:06:30;-1.60;99.90
13426;DHT22;6785;57.918;12.530;2023-02-28T02:08:59;-1.60;99.90
13426;DHT22;6785;57.918;12.530;2023-02-28T02:11:26;-1.60;99.90
13426;DHT22;6785;57.918;12.530;2023-02-28T02:14:10;-1.60;99.90
13426;DHT22;6785;57.918;12.530;2023-02-28T02:16:49;-1.60;99.90
13426;DHT22;6785;57.918;12.530;2023-02-28T02:25:26;-1.60;99.90
13426;DHT22;6785;57.918;12.530;2023-02-28T02:31:10;-1.70;99.90
13426;DHT22;6785;57.918;12.530;2023-02-28T02:36:51;-1.70;99.90
13426;DHT22;6785;57.918;12.530;2023-02-28T02:39:27;-1.80;99.90
13426;DHT22;6785;57.918;12.530;2023-02-28T02:41:59;-1.80;99.90
13426;DHT22;6785;57.918;12.530;2023-02-28T02:44:31;-1.80;99.90
13426;DHT22;6785;57.918;12.530;2023-02-28T02:47:05;-1.80;99.90
13426;DHT22;6785;57.918;12.530;2023-02-28T02:49:35;-1.90;99.90
13426;DHT22;6785;57.918;12.530;2023-02-28T02:52:05;-2.00;99.90
13426;DHT22;6785;57.918;12.530;2023-02-28T02:54:36;-2.00;99.90
13426;DHT22;6785;57.918;12.530;2023-02-28T02:57:06;-2.00;99.90
13426;DHT22;6785;57.918;12.530;2023-02-28T02:59:35;-2.00;99.90
13426;DHT22;6785;57.918;12.530;2023-02-28T03:02:06;-2.00;99.90
13426;DHT22;6785;57.918;12.530;2023-02-28T03:04:38;-2.00;99.90
13426;DHT22;6785;57.918;12.530;2023-02-28T03:07:08;-2.00;99.90
13426;DHT22;6785;57.918;12.530;2023-02-28T03:09:35;-2.10;99.90
13426;DHT22;6785;57.918;12.530;2023-02-28T03:12:02;-2.10;99.90
13426;DHT22;6785;57.918;12.530;2023-02-28T03:14:40;-2.10;99.90
13426;DHT22;6785;57.918;12.530;2023-02-28T03:17:28;-2.20;99.90
13426;DHT22;6785;57.918;12.530;2023-02-28T03:20:04;-2.20;99.90
13426;DHT22;6785;57.918;12.530;2023-02-28T03:22:52;-2.10;99.90
13426;DHT22;6785;57.918;12.530;2023-02-28T03:25:29;-2.20;99.90
13426;DHT22;6785;57.918;12.530;2023-02-28T03:28:02;-2.10;99.90
13426;DHT22;6785;57.918;12.530;2023-02-28T03:30:36;-2.10;99.90
13426;DHT22;6785;57.918;12.530;2023-02-28T03:33:08;-2.00;99.90
13426;DHT22;6785;57.918;12.530;2023-02-28T03:35:40;-2.00;99.90
13426;DHT22;6785;57.918;12.530;2023-02-28T03:38:14;-2.10;99.90
13426;DHT22;6785;57.918;12.530;2023-02-28T03:40:45;-2.10;99.90
13426;DHT22;6785;57.918;12.530;2023-02-28T03:43:17;-2.10;99.90
13426;DHT22;6785;57.918;12.530;2023-02-28T03:45:45;-2.20;99.90
13426;DHT22;6785;57.918;12.530;2023-02-28T03:48:15;-2.20;99.90
13426;DHT22;6785;57.918;12.530;2023-02-28T03:50:45;-2.20;99.90
13426;DHT22;6785;57.918;12.530;2023-02-28T03:53:16;-2.20;99.90
13426;DHT22;6785;57.918;12.530;2023-02-28T03:55:48;-2.20;99.90
13426;DHT22;6785;57.918;12.530;2023-02-28T03:58:22;-2.30;99.90
13426;DHT22;6785;57.918;12.530;2023-02-28T04:00:56;-2.30;99.90
13426;DHT22;6785;57.918;12.530;2023-02-28T04:03:25;-2.30;99.90
13426;DHT22;6785;57.918;12.530;2023-02-28T04:05:54;-2.30;99.90
13426;DHT22;6785;57.918;12.530;2023-02-28T04:08:23;-2.30;99.90
13426;DHT22;6785;57.918;12.530;2023-02-28T04:10:53;-2.40;99.90
13426;DHT22;6785;57.918;12.530;2023-02-28T04:13:21;-2.40;99.90
13426;DHT22;6785;57.918;12.530;2023-02-28T04:15:48;-2.30;99.90
13426;DHT22;6785;57.918;12.530;2023-02-28T04:18:14;-2.30;99.90
13426;DHT22;6785;57.918;12.530;2023-02-28T04:20:41;-2.30;99.90
13426;DHT22;6785;57.918;12.530;2023-02-28T04:23:08;-2.30;99.90
13426;DHT22;6785;57.918;12.530;2023-02-28T04:25:36;-2.30;99.90
13426;DHT22;6785;57.918;12.530;2023-02-28T04:28:05;-2.30;99.90
13426;DHT22;6785;57.918;12.530;2023-02-28T04:30:32;-2.30;99.90
13426;DHT22;6785;57.918;12.530;2023-02-28T04:33:00;-2.30;99.90
13426;DHT22;6785;57.918;12.530;2023-02-28T04:35:26;-2.30;99.90
13426;DHT22;6785;57.918;12.530;2023-02-28T04:37:53;-2.40;99.90
13426;DHT22;6785;57.918;12.530;2023-02-28T04:40:21;-2.40;99.90
13426;DHT22;6785;57.918;12.530;2023-02-28T04:42:49;-2.40;99.90
13426;DHT22;6785;57.918;12.530;2023-02-28T04:45:16;-2.40;99.90
13426;DHT22;6785;57.918;12.530;2023-02-28T04:47:43;-2.30;99.90
13426;DHT22;6785;57.918;12.530;2023-02-28T04:50:10;-2.40;99.90
13426;DHT22;6785;57.918;12.530;2023-02-28T04:52:36;-2.40;99.90
13426;DHT22;6785;57.918;12.530;2023-02-28T04:55:04;-2.40;99.90
13426;DHT22;6785;57.918;12.530;2023-02-28T04:57:31;-2.40;99.90
13426;DHT22;6785;57.918;12.530;2023-02-28T04:59:59;-2.40;99.90
13426;DHT22;6785;57.918;12.530;2023-02-28T05:02:26;-2.40;99.90
13426;DHT22;6785;57.918;12.530;2023-02-28T05:04:52;-2.40;99.90
13426;DHT22;6785;57.918;12.530;2023-02-28T05:07:19;-2.40;99.90
13426;DHT22;6785;57.918;12.530;2023-02-28T05:09:46;-2.40;99.90
13426;DHT22;6785;57.918;12.530;2023-02-28T05:12:13;-2.30;99.90
13426;DHT22;6785;57.918;12.530;2023-02-28T05:14:39;-2.30;99.90
13426;DHT22;6785;57.918;12.530;2023-02-28T05:17:08;-2.20;99.90
13426;DHT22;6785;57.918;12.530;2023-02-28T05:19:35;-2.20;99.90
13426;DHT22;6785;57.918;12.530;2023-02-28T05:22:02;-2.20;99.90
13426;DHT22;6785;57.918;12.530;2023-02-28T05:24:29;-2.20;99.90
13426;DHT22;6785;57.918;12.530;2023-02-28T05:26:55;-2.20;99.90
13426;DHT22;6785;57.918;12.530;2023-02-28T05:29:22;-2.20;99.90
13426;DHT22;6785;57.918;12.530;2023-02-28T05:31:49;-2.30;99.90
13426;DHT22;6785;57.918;12.530;2023-02-28T05:34:17;-2.30;99.90
13426;DHT22;6785;57.918;12.530;2023-02-28T05:36:44;-2.30;99.90
13426;DHT22;6785;57.918;12.530;2023-02-28T05:39:11;-2.30;99.90
13426;DHT22;6785;57.918;12.530;2023-02-28T05:41:40;-2.40;99.90
13426;DHT22;6785;57.918;12.530;2023-02-28T05:44:06;-2.40;99.90
13426;DHT22;6785;57.918;12.530;2023-02-28T05:46:33;-2.40;99.90
13426;DHT22;6785;57.918;12.530;2023-02-28T05:49:00;-2.40;99.90
13426;DHT22;6785;57.918;12.530;2023-02-28T05:51:28;-2.40;99.90
13426;DHT22;6785;57.918;12.530;2023-02-28T05:53:58;-2.40;99.90
13426;DHT22;6785;57.918;12.530;2023-02-28T05:56:25;-2.50;99.90
13426;DHT22;6785;57.918;12.530;2023-02-28T05:58:52;-2.40;99.90
13426;DHT22;6785;57.918;12.530;2023-02-28T06:01:22;-2.40;99.90
13426;DHT22;6785;57.918;12.530;2023-02-28T06:03:49;-2.40;99.90
13426;DHT22;6785;57.918;12.530;2023-02-28T06:06:16;-2.40;99.90
13426;DHT22;6785;57.918;12.530;2023-02-28T06:08:44;-2.40;99.90
13426;DHT22;6785;57.918;12.530;2023-02-28T06:11:11;-2.40;99.90
13426;DHT22;6785;57.918;12.530;2023-02-28T06:13:38;-2.40;99.90
13426;DHT22;6785;57.918;12.530;2023-02-28T06:16:05;-2.40;99.90
13426;DHT22;6785;57.918;12.530;2023-02-28T06:18:32;-2.50;99.90
13426;DHT22;6785;57.918;12.530;2023-02-28T06:20:59;-2.50;99.90
13426;DHT22;6785;57.918;12.530;2023-02-28T06:23:26;-2.50;99.90
13426;DHT22;6785;57.918;12.530;2023-02-28T06:25:54;-2.50;99.90
13426;DHT22;6785;57.918;12.530;2023-02-28T06:28:23;-2.50;99.90
13426;DHT22;6785;57.918;12.530;2023-02-28T06:30:50;-2.40;99.90
13426;DHT22;6785;57.918;12.530;2023-02-28T06:33:17;-2.40;99.90
13426;DHT22;6785;57.918;12.530;2023-02-28T06:35:44;-2.40;99.90
13426;DHT22;6785;57.918;12.530;2023-02-28T06:38:11;-2.30;99.90
13426;DHT22;6785;57.918;12.530;2023-02-28T06:40:38;-2.30;99.90
13426;DHT22;6785;57.918;12.530;2023-02-28T06:43:06;-2.30;99.90
13426;DHT22;6785;57.918;12.530;2023-02-28T06:45:32;-2.30;99.90
13426;DHT22;6785;57.918;12.530;2023-02-28T06:48:00;-2.20;99.90
13426;DHT22;6785;57.918;12.530;2023-02-28T06:50:26;-2.10;99.90
13426;DHT22;6785;57.918;12.530;2023-02-28T06:52:55;-2.10;99.90
13426;DHT22;6785;57.918;12.530;2023-02-28T06:55:21;-2.10;99.90
13426;DHT22;6785;57.918;12.530;2023-02-28T06:57:48;-2.00;99.90
13426;DHT22;6785;57.918;12.530;2023-02-28T07:00:17;-2.00;99.90
13426;DHT22;6785;57.918;12.530;2023-02-28T07:02:44;-2.00;99.90
13426;DHT22;6785;57.918;12.530;2023-02-28T07:05:12;-1.90;99.90
13426;DHT22;6785;57.918;12.530;2023-02-28T07:07:39;-1.80;99.90
13426;DHT22;6785;57.918;12.530;2023-02-28T07:10:10;-1.80;99.90
13426;DHT22;6785;57.918;12.530;2023-02-28T07:12:38;-1.70;99.90
13426;DHT22;6785;57.918;12.530;2023-02-28T07:15:05;-1.70;99.90
13426;DHT22;6785;57.918;12.530;2023-02-28T07:17:34;-1.60;99.90
13426;DHT22;6785;57.918;12.530;2023-02-28T07:20:00;-1.60;99.90
13426;DHT22;6785;57.918;12.530;2023-02-28T07:22:29;-1.50;99.90
13426;DHT22;6785;57.918;12.530;2023-02-28T07:24:56;-1.40;99.90
13426;DHT22;6785;57.918;12.530;2023-02-28T07:27:23;-1.30;99.90
13426;DHT22;6785;57.918;12.530;2023-02-28T07:29:51;-1.30;99.90
13426;DHT22;6785;57.918;12.530;2023-02-28T07:32:18;-1.10;99.90
13426;DHT22;6785;57.918;12.530;2023-02-28T07:34:46;-1.00;99.90
13426;DHT22;6785;57.918;12.530;2023-02-28T07:37:14;-0.80;99.90
13426;DHT22;6785;57.918;12.530;2023-02-28T07:39:40;-0.80;99.90
13426;DHT22;6785;57.918;12.530;2023-02-28T07:42:08;-0.50;99.90
13426;DHT22;6785;57.918;12.530;2023-02-28T07:44:37;-0.30;99.90
13426;DHT22;6785;57.918;12.530;2023-02-28T07:47:06;-0.10;99.90
13426;DHT22;6785;57.918;12.530;2023-02-28T07:49:33;0.00;99.90
13426;DHT22;6785;57.918;12.530;2023-02-28T07:52:01;0.20;99.90
13426;DHT22;6785;57.918;12.530;2023-02-28T07:54:29;0.30;99.90
13426;DHT22;6785;57.918;12.530;2023-02-28T07:56:55;0.40;99.90
13426;DHT22;6785;57.918;12.530;2023-02-28T07:59:22;0.40;99.90
13426;DHT22;6785;57.918;12.530;2023-02-28T08:01:49;0.40;99.90
13426;DHT22;6785;57.918;12.530;2023-02-28T08:04:16;0.50;99.90
13426;DHT22;6785;57.918;12.530;2023-02-28T08:06:43;0.50;99.90
13426;DHT22;6785;57.918;12.530;2023-02-28T08:09:12;0.60;99.90
13426;DHT22;6785;57.918;12.530;2023-02-28T08:11:39;0.70;99.90
13426;DHT22;6785;57.918;12.530;2023-02-28T08:14:06;0.80;99.90
13426;DHT22;6785;57.918;12.530;2023-02-28T08:16:33;0.80;99.90
13426;DHT22;6785;57.918;12.530;2023-02-28T08:18:59;0.90;99.90
13426;DHT22;6785;57.918;12.530;2023-02-28T08:21:26;1.00;99.90
13426;DHT22;6785;57.918;12.530;2023-02-28T08:23:53;1.10;99.90
13426;DHT22;6785;57.918;12.530;2023-02-28T08:26:21;1.20;99.90
13426;DHT22;6785;57.918;12.530;2023-02-28T08:28:47;1.30;99.90
13426;DHT22;6785;57.918;12.530;2023-02-28T08:31:16;1.30;99.90
13426;DHT22;6785;57.918;12.530;2023-02-28T08:33:43;1.40;99.90
13426;DHT22;6785;57.918;12.530;2023-02-28T08:36:11;1.50;99.90
13426;DHT22;6785;57.918;12.530;2023-02-28T08:38:38;1.60;99.90
13426;DHT22;6785;57.918;12.530;2023-02-28T08:41:07;1.60;99.90
13426;DHT22;6785;57.918;12.530;2023-02-28T08:43:36;1.70;99.90
13426;DHT22;6785;57.918;12.530;2023-02-28T08:46:03;1.80;99.90
13426;DHT22;6785;57.918;12.530;2023-02-28T08:48:32;1.90;99.90
13426;DHT22;6785;57.918;12.530;2023-02-28T08:51:02;1.90;99.90
13426;DHT22;6785;57.918;12.530;2023-02-28T08:53:29;2.00;99.90
13426;DHT22;6785;57.918;12.530;2023-02-28T08:55:57;2.10;99.90
13426;DHT22;6785;57.918;12.530;2023-02-28T08:58:24;2.20;99.90
13426;DHT22;6785;57.918;12.530;2023-02-28T09:00:53;2.30;99.90
13426;DHT22;6785;57.918;12.530;2023-02-28T09:03:20;2.30;99.90
13426;DHT22;6785;57.918;12.530;2023-02-28T09:05:55;2.50;99.90
13426;DHT22;6785;57.918;12.530;2023-02-28T09:08:22;2.50;99.90
13426;DHT22;6785;57.918;12.530;2023-02-28T09:10:49;2.70;99.90
13426;DHT22;6785;57.918;12.530;2023-02-28T09:13:17;2.80;99.90
13426;DHT22;6785;57.918;12.530;2023-02-28T09:15:44;2.90;99.90
13426;DHT22;6785;57.918;12.530;2023-02-28T09:18:12;3.00;99.90
13426;DHT22;6785;57.918;12.530;2023-02-28T09:20:40;3.10;99.90
13426;DHT22;6785;57.918;12.530;2023-02-28T09:23:07;3.10;99.90
13426;DHT22;6785;57.918;12.530;2023-02-28T09:25:34;3.20;99.90
13426;DHT22;6785;57.918;12.530;2023-02-28T09:28:02;3.30;99.90
13426;DHT22;6785;57.918;12.530;2023-02-28T09:30:29;3.50;99.90
13426;DHT22;6785;57.918;12.530;2023-02-28T09:32:56;3.60;99.90
13426;DHT22;6785;57.918;12.530;2023-02-28T09:35:25;3.70;99.90
13426;DHT22;6785;57.918;12.530;2023-02-28T09:37:53;3.90;99.90
13426;DHT22;6785;57.918;12.530;2023-02-28T09:40:23;4.00;99.90
13426;DHT22;6785;57.918;12.530;2023-02-28T09:42:52;4.10;99.90
13426;DHT22;6785;57.918;12.530;2023-02-28T09:45:24;4.20;99.90
13426;DHT22;6785;57.918;12.530;2023-02-28T09:47:53;4.30;99.90
13426;DHT22;6785;57.918;12.530;2023-02-28T09:50:28;4.50;99.90
13426;DHT22;6785;57.918;12.530;2023-02-28T09:52:59;4.60;99.90
13426;DHT22;6785;57.918;12.530;2023-02-28T09:55:31;4.70;99.90
13426;DHT22;6785;57.918;12.530;2023-02-28T09:58:00;4.80;99.90
13426;DHT22;6785;57.918;12.530;2023-02-28T10:00:30;4.80;99.90
13426;DHT22;6785;57.918;12.530;2023-02-28T10:03:20;4.80;99.90
13426;DHT22;6785;57.918;12.530;2023-02-28T10:05:53;4.90;99.90
13426;DHT22;6785;57.918;12.530;2023-02-28T10:08:26;5.00;99.90
13426;DHT22;6785;57.918;12.530;2023-02-28T10:10:55;5.10;99.90
13426;DHT22;6785;57.918;12.530;2023-02-28T10:13:27;5.10;99.90
13426;DHT22;6785;57.918;12.530;2023-02-28T10:15:59;5.20;99.90
13426;DHT22;6785;57.918;12.530;2023-02-28T10:18:32;5.20;99.90
13426;DHT22;6785;57.918;12.530;2023-02-28T10:21:04;5.20;99.90
13426;DHT22;6785;57.918;12.530;2023-02-28T10:23:35;5.20;99.90
13426;DHT22;6785;57.918;12.530;2023-02-28T10:26:10;5.20;99.90
13426;DHT22;6785;57.918;12.530;2023-02-28T10:28:38;5.30;99.90
13426;DHT22;6785;57.918;12.530;2023-02-28T10:31:08;5.30;99.90
13426;DHT22;6785;57.918;12.530;2023-02-28T10:33:36;5.40;99.90
13426;DHT22;6785;57.918;12.530;2023-02-28T10:36:05;5.50;99.90
13426;DHT22;6785;57.918;12.530;2023-02-28T10:38:35;5.60;99.90
13426;DHT22;6785;57.918;12.530;2023-02-28T10:41:07;5.50;99.90
13426;DHT22;6785;57.918;12.530;2023-02-28T10:43:35;5.60;99.90
13426;DHT22;6785;57.918;12.530;2023-02-28T10:46:03;5.80;99.90
13426;DHT22;6785;57.918;12.530;2023-02-28T10:48:36;6.00;99.90
13426;DHT22;6785;57.918;12.530;2023-02-28T10:51:05;6.10;99.90
13426;DHT22;6785;57.918;12.530;2023-02-28T10:53:37;6.30;99.90
13426;DHT22;6785;57.918;12.530;2023-02-28T10:56:13;6.30;99.90
13426;DHT22;6785;57.918;12.530;2023-02-28T10:58:50;6.40;99.90
13426;DHT22;6785;57.918;12.530;2023-02-28T11:01:19;6.50;99.90
13426;DHT22;6785;57.918;12.530;2023-02-28T11:03:47;6.60;99.90
13426;DHT22;6785;57.918;12.530;2023-02-28T11:06:18;6.70;99.90
13426;DHT22;6785;57.918;12.530;2023-02-28T11:08:48;6.70;99.90
13426;DHT22;6785;57.918;12.530;2023-02-28T11:11:16;6.80;99.90
13426;DHT22;6785;57.918;12.530;2023-02-28T11:13:44;6.80;99.90
13426;DHT22;6785;57.918;12.530;2023-02-28T11:16:12;6.90;99.90
13426;DHT22;6785;57.918;12.530;2023-02-28T11:18:43;6.90;99.90
13426;DHT22;6785;57.918;12.530;2023-02-28T11:21:18;7.00;99.90
13426;DHT22;6785;57.918;12.530;2023-02-28T11:23:47;7.10;99.90
13426;DHT22;6785;57.918;12.530;2023-02-28T11:26:16;7.20;99.90
13426;DHT22;6785;57.918;12.530;2023-02-28T11:29:10;7.30;99.90
13426;DHT22;6785;57.918;12.530;2023-02-28T11:31:39;7.30;99.90
13426;DHT22;6785;57.918;12.530;2023-02-28T11:34:24;7.40;99.90
13426;DHT22;6785;57.918;12.530;2023-02-28T11:36:54;7.40;99.90
13426;DHT22;6785;57.918;12.530;2023-02-28T11:39:22;7.40;99.90
13426;DHT22;6785;57.918;12.530;2023-02-28T11:44:49;7.60;99.90
13426;DHT22;6785;57.918;12.530;2023-02-28T11:47:28;7.70;99.90
13426;DHT22;6785;57.918;12.530;2023-02-28T11:50:08;7.70;99.90
13426;DHT22;6785;57.918;12.530;2023-02-28T11:52:47;7.80;99.90
13426;DHT22;6785;57.918;12.530;2023-02-28T11:55:19;7.90;99.90
13426;DHT22;6785;57.918;12.530;2023-02-28T11:57:56;7.90;99.90
13426;DHT22;6785;57.918;12.530;2023-02-28T12:00:44;8.00;99.90
13426;DHT22;6785;57.918;12.530;2023-02-28T12:03:22;8.10;99.90
13426;DHT22;6785;57.918;12.530;2023-02-28T12:06:00;8.10;99.90
13426;DHT22;6785;57.918;12.530;2023-02-28T12:08:43;8.20;99.90
13426;DHT22;6785;57.918;12.530;2023-02-28T12:11:17;8.20;99.90
13426;DHT22;6785;57.918;12.530;2023-02-28T12:13:52;8.30;99.90
13426;DHT22;6785;57.918;12.530;2023-02-28T12:16:45;8.30;99.90
13426;DHT22;6785;57.918;12.530;2023-02-28T12:19:19;8.20;99.90
13426;DHT22;6785;57.918;12.530;2023-02-28T12:22:11;8.20;99.90
13426;DHT22;6785;57.918;12.530;2023-02-28T12:24:54;8.30;99.90
13426;DHT22;6785;57.918;12.530;2023-02-28T12:27:24;8.40;99.90
13426;DHT22;6785;57.918;12.530;2023-02-28T12:29:55;8.50;99.90
13426;DHT22;6785;57.918;12.530;2023-02-28T12:32:27;8.50;99.90
13426;DHT22;6785;57.918;12.530;2023-02-28T12:34:59;8.60;99.90
13426;DHT22;6785;57.918;12.530;2023-02-28T12:37:33;8.50;99.90
13426;DHT22;6785;57.918;12.530;2023-02-28T12:40:09;8.50;99.90
13426;DHT22;6785;57.918;12.530;2023-02-28T12:42:40;8.50;99.90
13426;DHT22;6785;57.918;12.530;2023-02-28T12:45:10;8.50;99.90
13426;DHT22;6785;57.918;12.530;2023-02-28T12:47:41;8.50;99.90
13426;DHT22;6785;57.918;12.530;2023-02-28T12:50:11;8.40;99.90
13426;DHT22;6785;57.918;12.530;2023-02-28T12:52:41;8.30;99.90
13426;DHT22;6785;57.918;12.530;2023-02-28T12:55:19;8.30;99.90
13426;DHT22;6785;57.918;12.530;2023-02-28T12:57:54;8.30;99.90
13426;DHT22;6785;57.918;12.530;2023-02-28T13:00:30;8.40;99.90
13426;DHT22;6785;57.918;12.530;2023-02-28T13:06:08;8.50;99.90
13426;DHT22;6785;57.918;12.530;2023-02-28T13:08:59;8.40;99.90
13426;DHT22;6785;57.918;12.530;2023-02-28T13:11:31;8.40;99.90
13426;DHT22;6785;57.918;12.530;2023-02-28T13:14:00;8.40;99.90
13426;DHT22;6785;57.918;12.530;2023-02-28T13:16:28;8.40;99.90
13426;DHT22;6785;57.918;12.530;2023-02-28T13:19:18;8.30;99.90
13426;DHT22;6785;57.918;12.530;2023-02-28T13:21:47;8.30;99.90
13426;DHT22;6785;57.918;12.530;2023-02-28T13:24:45;8.30;99.90
13426;DHT22;6785;57.918;12.530;2023-02-28T13:27:24;8.20;99.90
13426;DHT22;6785;57.918;12.530;2023-02-28T13:29:58;8.20;99.90
13426;DHT22;6785;57.918;12.530;2023-02-28T13:32:42;8.10;99.90
13426;DHT22;6785;57.918;12.530;2023-02-28T13:38:33;8.20;99.90
13426;DHT22;6785;57.918;12.530;2023-02-28T13:44:10;8.20;99.90
13426;DHT22;6785;57.918;12.530;2023-02-28T13:49:42;8.10;99.90
13426;DHT22;6785;57.918;12.530;2023-02-28T13:52:15;8.00;99.90
13426;DHT22;6785;57.918;12.530;2023-02-28T13:55:01;8.20;99.90
13426;DHT22;6785;57.918;12.530;2023-02-28T13:57:43;8.10;99.90
13426;DHT22;6785;57.918;12.530;2023-02-28T14:00:23;8.10;99.90
13426;DHT22;6785;57.918;12.530;2023-02-28T14:03:11;8.10;99.90
13426;DHT22;6785;57.918;12.530;2023-02-28T14:05:41;8.00;99.90
13426;DHT22;6785;57.918;12.530;2023-02-28T14:08:13;8.00;99.90
13426;DHT22;6785;57.918;12.530;2023-02-28T14:10:44;8.00;99.90
13426;DHT22;6785;57.918;12.530;2023-02-28T14:15:58;8.10;99.90
13426;DHT22;6785;57.918;12.530;2023-02-28T14:18:31;8.10;99.90
13426;DHT22;6785;57.918;12.530;2023-02-28T14:21:02;8.00;99.90
13426;DHT22;6785;57.918;12.530;2023-02-28T14:23:55;8.00;99.90
13426;DHT22;6785;57.918;12.530;2023-02-28T14:26:35;8.00;99.90
13426;DHT22;6785;57.918;12.530;2023-02-28T14:31:58;7.90;99.90
13426;DHT22;6785;57.918;12.530;2023-02-28T14:34:37;7.90;99.90
13426;DHT22;6785;57.918;12.530;2023-02-28T14:37:13;7.80;99.90
13426;DHT22;6785;57.918;12.530;2023-02-28T14:39:42;7.80;99.90
13426;DHT22;6785;57.918;12.530;2023-02-28T14:42:27;7.80;99.90
13426;DHT22;6785;57.918;12.530;2023-02-28T14:44:54;7.90;99.90
13426;DHT22;6785;57.918;12.530;2023-02-28T14:47:25;7.90;99.90
13426;DHT22;6785;57.918;12.530;2023-02-28T14:49:54;7.90;99.90
13426;DHT22;6785;57.918;12.530;2023-02-28T14:52:22;7.90;99.90
13426;DHT22;6785;57.918;12.530;2023-02-28T14:54:52;7.90;99.90
13426;DHT22;6785;57.918;12.530;2023-02-28T14:57:22;7.80;99.90
13426;DHT22;6785;57.918;12.530;2023-02-28T15:00:00;7.80;99.90
13426;DHT22;6785;57.918;12.530;2023-02-28T15:02:34;7.80;99.90
13426;DHT22;6785;57.918;12.530;2023-02-28T15:05:10;7.80;99.90
13426;DHT22;6785;57.918;12.530;2023-02-28T15:07:42;7.70;99.90
13426;DHT22;6785;57.918;12.530;2023-02-28T15:10:12;7.70;99.90
13426;DHT22;6785;57.918;12.530;2023-02-28T15:12:40;7.60;99.90
13426;DHT22;6785;57.918;12.530;2023-02-28T15:15:14;7.60;99.90
13426;DHT22;6785;57.918;12.530;2023-02-28T15:17:45;7.50;99.90
13426;DHT22;6785;57.918;12.530;2023-02-28T15:20:13;7.30;99.90
13426;DHT22;6785;57.918;12.530;2023-02-28T15:22:41;7.30;99.90
13426;DHT22;6785;57.918;12.530;2023-02-28T15:25:14;7.20;99.90
13426;DHT22;6785;57.918;12.530;2023-02-28T15:27:45;7.10;99.90
13426;DHT22;6785;57.918;12.530;2023-02-28T15:30:17;7.00;99.90
13426;DHT22;6785;57.918;12.530;2023-02-28T15:33:02;7.10;99.90
13426;DHT22;6785;57.918;12.530;2023-02-28T15:35:31;7.00;99.90
13426;DHT22;6785;57.918;12.530;2023-02-28T15:38:01;6.80;99.90
13426;DHT22;6785;57.918;12.530;2023-02-28T15:40:30;6.90;99.90
13426;DHT22;6785;57.918;12.530;2023-02-28T15:43:05;6.80;99.90
13426;DHT22;6785;57.918;12.530;2023-02-28T15:45:37;6.60;99.90
13426;DHT22;6785;57.918;12.530;2023-02-28T15:48:16;6.70;99.90
13426;DHT22;6785;57.918;12.530;2023-02-28T15:50:44;6.60;99.90
13426;DHT22;6785;57.918;12.530;2023-02-28T15:53:16;6.50;99.90
13426;DHT22;6785;57.918;12.530;2023-02-28T15:55:44;6.30;99.90
13426;DHT22;6785;57.918;12.530;2023-02-28T15:58:12;6.20;99.90
13426;DHT22;6785;57.918;12.530;2023-02-28T16:00:39;6.10;99.90
13426;DHT22;6785;57.918;12.530;2023-02-28T16:03:25;6.00;99.90
13426;DHT22;6785;57.918;12.530;2023-02-28T16:06:35;6.00;99.90
13426;DHT22;6785;57.918;12.530;2023-02-28T16:09:05;5.80;99.90
13426;DHT22;6785;57.918;12.530;2023-02-28T16:11:34;5.60;99.90
13426;DHT22;6785;57.918;12.530;2023-02-28T16:14:01;5.60;99.90
13426;DHT22;6785;57.918;12.530;2023-02-28T16:16:28;5.50;99.90
13426;DHT22;6785;57.918;12.530;2023-02-28T16:18:56;5.40;99.90
13426;DHT22;6785;57.918;12.530;2023-02-28T16:21:24;5.40;99.90
13426;DHT22;6785;57.918;12.530;2023-02-28T16:23:51;5.20;99.90
13426;DHT22;6785;57.918;12.530;2023-02-28T16:26:21;5.10;99.90
13426;DHT22;6785;57.918;12.530;2023-02-28T16:28:48;5.00;99.90
13426;DHT22;6785;57.918;12.530;2023-02-28T16:31:15;5.00;99.90
13426;DHT22;6785;57.918;12.530;2023-02-28T16:33:43;4.90;99.90